Time;durP1;ratioP1;P1;durP2;ratioP2;P2;SDS_P1;SDS_P2;PMS_P1;PMS_P2;Temp;Humidity;BMP_temperature;BMP_pressure;BME280_temperature;BME280_humidity;BME280_pressure;Samples;Min_cycle;Max_cycle;Signal;HPM_P1;HPM_P2
2022/07/14 00:02:10;;;;;;;6.10;2.10;;;;;;;19.15;58.94;101200.84;4994144;28;20234;-85
2022/07/14 00:04:38;;;;;;;6.70;2.33;;;;;;;19.11;58.98;101204.81;4993725;28;20228;-84
2022/07/14 00:07:04;;;;;;;7.13;2.67;;;;;;;19.07;59.12;101211.47;4993915;28;20733;-85
2022/07/14 00:09:31;;;;;;;10.50;2.77;;;;;;;19.04;59.21;101215.28;4993358;28;20595;-85
2022/07/14 00:11:58;;;;;;;8.47;1.87;;;;;;;18.99;59.22;101208.59;4992941;28;20328;-84
2022/07/14 00:14:24;;;;;;;9.73;2.63;;;;;;;18.93;59.57;101212.72;4993101;28;20216;-84
2022/07/14 00:16:51;;;;;;;14.13;2.30;;;;;;;18.87;59.90;101213.25;4996223;28;20224;-84
2022/07/14 00:19:18;;;;;;;9.20;2.83;;;;;;;18.83;60.24;101219.06;5020317;28;20236;-84
2022/07/14 00:21:46;;;;;;;11.13;2.43;;;;;;;18.76;60.42;101218.75;5011892;28;20284;-83
2022/07/14 00:24:13;;;;;;;7.40;2.40;;;;;;;18.70;60.83;101217.44;5031676;28;20209;-85
2022/07/14 00:26:40;;;;;;;12.47;2.83;;;;;;;18.65;61.30;101222.41;5032358;28;20210;-84
2022/07/14 00:29:07;;;;;;;8.57;2.80;;;;;;;18.59;61.54;101217.56;5035609;28;20218;-84
2022/07/14 00:31:33;;;;;;;6.77;2.37;;;;;;;18.52;61.79;101210.94;5035550;28;20230;-84
2022/07/14 00:34:01;;;;;;;10.07;2.50;;;;;;;18.45;62.22;101212.47;5023332;28;20226;-84
2022/07/14 00:36:28;;;;;;;14.23;3.07;;;;;;;18.39;62.47;101218.41;5015676;28;20202;-84
2022/07/14 00:38:56;;;;;;;10.73;2.67;;;;;;;18.33;62.75;101217.09;5015274;28;20215;-85
2022/07/14 00:41:22;;;;;;;9.67;2.63;;;;;;;18.28;63.23;101223.84;5014866;28;20223;-85
2022/07/14 00:43:49;;;;;;;8.53;2.40;;;;;;;18.22;63.55;101219.03;5014778;28;20223;-84
2022/07/14 00:46:15;;;;;;;18.83;2.93;;;;;;;18.18;63.67;101220.25;5014479;28;20218;-84
2022/07/14 00:48:42;;;;;;;9.93;2.57;;;;;;;18.14;63.92;101222.38;5014413;28;20576;-85
2022/07/14 00:51:09;;;;;;;12.33;2.53;;;;;;;18.10;64.25;101217.34;5015026;28;20638;-85
2022/07/14 00:53:35;;;;;;;11.67;2.87;;;;;;;18.05;64.42;101207.00;5014321;28;20213;-84
2022/07/14 00:56:04;;;;;;;10.03;2.73;;;;;;;18.03;64.79;101207.13;5014162;28;20820;-84
2022/07/14 00:58:30;;;;;;;6.50;2.37;;;;;;;18.01;64.86;101211.78;5014835;28;20222;-85
2022/07/14 01:00:57;;;;;;;8.57;2.53;;;;;;;17.99;65.11;101216.44;5019396;28;20215;-85
2022/07/14 01:03:23;;;;;;;14.43;3.47;;;;;;;17.99;65.18;101215.59;5015363;28;20647;-84
2022/07/14 01:05:50;;;;;;;6.60;2.33;;;;;;;17.96;65.16;101214.00;5027457;28;20207;-84
2022/07/14 01:08:16;;;;;;;10.27;2.60;;;;;;;17.97;65.46;101213.03;5015152;28;20377;-84
2022/07/14 01:10:43;;;;;;;9.30;2.93;;;;;;;17.97;65.44;101209.47;5014303;28;20230;-84
2022/07/14 01:13:11;;;;;;;13.43;2.70;;;;;;;17.94;65.48;101213.28;5013110;28;20232;-84
2022/07/14 01:15:37;;;;;;;10.80;2.80;;;;;;;17.92;65.62;101217.09;5015149;28;20312;-83
2022/07/14 01:18:04;;;;;;;7.90;2.43;;;;;;;17.87;65.78;101217.50;5010974;28;20207;-83
2022/07/14 01:20:31;;;;;;;11.17;2.70;;;;;;;17.83;66.03;101217.88;5012613;28;20295;-84
2022/07/14 01:22:58;;;;;;;8.03;2.60;;;;;;;17.80;66.44;101226.22;5015270;28;20695;-84
2022/07/14 01:25:25;;;;;;;11.13;2.47;;;;;;;17.75;66.62;101221.22;5015071;28;20217;-83
2022/07/14 01:27:52;;;;;;;10.80;2.70;;;;;;;17.70;66.88;101212.69;5012565;28;20212;-83
2022/07/14 01:30:18;;;;;;;12.43;2.80;;;;;;;17.66;67.17;101203.16;5011896;28;20206;-84
2022/07/14 01:32:45;;;;;;;13.23;2.73;;;;;;;17.63;67.15;101201.53;5011711;28;20216;-84
2022/07/14 01:35:11;;;;;;;11.10;2.50;;;;;;;17.60;67.31;101203.63;5011307;28;20209;-83
2022/07/14 01:37:38;;;;;;;12.70;2.57;;;;;;;17.56;67.59;101210.25;5011789;28;20589;-85
2022/07/14 01:40:08;;;;;;;14.53;3.20;;;;;;;17.51;67.61;101215.19;5009106;28;20708;-84
2022/07/14 01:42:35;;;;;;;11.90;3.33;;;;;;;17.45;67.96;101211.16;5013197;28;20707;-84
2022/07/14 01:45:02;;;;;;;8.33;2.23;;;;;;;17.43;68.24;101214.94;5011366;28;20212;-84
2022/07/14 01:47:28;;;;;;;9.83;2.50;;;;;;;17.39;68.25;101218.88;5011096;28;20300;-84
2022/07/14 01:49:55;;;;;;;11.20;3.10;;;;;;;17.38;68.67;101209.13;5010604;28;20226;-84
2022/07/14 01:52:21;;;;;;;9.23;2.83;;;;;;;17.34;68.72;101220.13;5013344;28;20321;-84
2022/07/14 01:54:48;;;;;;;11.60;2.90;;;;;;;17.33;68.63;101217.56;5014532;28;20611;-83
2022/07/14 01:57:16;;;;;;;13.90;2.40;;;;;;;17.32;68.62;101223.94;5006915;28;20213;-84
2022/07/14 01:59:42;;;;;;;10.83;2.87;;;;;;;17.30;68.91;101224.06;5019296;28;20212;-84
2022/07/14 02:02:09;;;;;;;9.83;2.67;;;;;;;17.26;69.04;101230.66;5013417;28;20237;-83
2022/07/14 02:04:35;;;;;;;8.93;2.60;;;;;;;17.21;68.84;101227.47;5014522;28;20255;-84
2022/07/14 02:07:02;;;;;;;9.20;2.00;;;;;;;17.18;68.93;101229.59;5013444;28;20297;-84
2022/07/14 02:12:12;;;;;;;11.83;2.43;;;;;;;17.09;69.11;101236.56;5012202;28;20689;-84
2022/07/14 02:14:41;;;;;;;8.03;2.60;;;;;;;17.05;68.88;101243.19;5015049;28;20205;-84
2022/07/14 02:17:08;;;;;;;8.53;2.37;;;;;;;17.02;68.92;101238.91;5008308;28;20267;-84
2022/07/14 02:19:35;;;;;;;10.27;2.17;;;;;;;16.98;68.97;101247.38;5009122;28;20200;-83
2022/07/14 02:22:01;;;;;;;10.77;2.73;;;;;;;16.94;68.76;101249.44;5011814;28;20323;-83
2022/07/14 02:24:28;;;;;;;9.23;2.27;;;;;;;16.89;68.86;101240.88;5006441;28;20460;-84
2022/07/14 02:26:54;;;;;;;8.97;2.90;;;;;;;16.85;68.68;101244.78;5013583;28;20655;-84
2022/07/14 02:29:22;;;;;;;15.00;2.70;;;;;;;16.82;68.66;101242.34;5013229;28;20205;-83
2022/07/14 02:31:50;;;;;;;8.43;2.53;;;;;;;16.81;68.61;101242.47;5012606;28;20434;-84
2022/07/14 02:34:17;;;;;;;6.67;2.03;;;;;;;16.78;68.99;101251.66;5010128;28;20204;-83
2022/07/14 02:36:44;;;;;;;9.77;2.30;;;;;;;16.76;68.63;101253.59;5010772;28;20211;-84
2022/07/14 02:39:10;;;;;;;13.27;2.87;;;;;;;16.75;68.69;101251.88;5003964;28;20210;-84
2022/07/14 02:41:37;;;;;;;10.80;2.90;;;;;;;16.72;68.72;101254.81;5009449;28;20224;-84
2022/07/14 02:44:04;;;;;;;6.97;2.30;;;;;;;16.71;68.67;101252.25;5011031;28;20209;-84
2022/07/14 02:46:31;;;;;;;13.67;2.80;;;;;;;16.72;68.69;101253.97;5002463;28;20205;-83
2022/07/14 02:48:59;;;;;;;10.07;2.23;;;;;;;16.72;68.70;101259.34;5007987;28;20274;-84
2022/07/14 02:51:25;;;;;;;12.40;2.30;;;;;;;16.71;68.42;101247.72;5006673;28;20725;-84
2022/07/14 02:53:52;;;;;;;8.93;2.20;;;;;;;16.71;68.63;101249.56;5010269;28;20216;-85
2022/07/14 02:56:18;;;;;;;15.23;2.60;;;;;;;16.72;68.69;101244.06;5010061;28;20223;-84
2022/07/14 02:58:45;;;;;;;10.37;2.40;;;;;;;16.72;68.45;101244.06;5008890;28;20237;-84
2022/07/14 03:01:11;;;;;;;7.93;2.00;;;;;;;16.75;68.30;101242.97;5007383;28;20595;-84
2022/07/14 03:03:38;;;;;;;9.23;2.53;;;;;;;16.74;68.19;101247.47;5001000;28;20312;-83
2022/07/14 03:06:11;;;;;;;15.93;2.87;;;;;;;16.72;68.18;101236.00;5003917;28;20202;-84
2022/07/14 03:08:38;;;;;;;10.93;2.73;;;;;;;16.70;68.09;101237.94;5004867;28;20206;-83
2022/07/14 03:11:05;;;;;;;7.90;2.30;;;;;;;16.67;68.09;101240.88;5005024;28;20417;-84
2022/07/14 03:13:31;;;;;;;6.23;2.10;;;;;;;16.65;68.39;101241.03;5006669;28;20208;-84
2022/07/14 03:15:59;;;;;;;14.70;2.80;;;;;;;16.64;68.28;101225.00;5007418;28;20212;-84
2022/07/14 03:18:26;;;;;;;8.30;2.13;;;;;;;16.63;68.31;101226.84;5010675;28;20214;-83
2022/07/14 03:20:52;;;;;;;10.90;2.30;;;;;;;16.63;68.53;101232.22;5007319;28;20547;-83
2022/07/14 03:23:21;;;;;;;8.43;2.10;;;;;;;16.63;68.77;101229.53;5002620;28;20205;-83
2022/07/14 03:25:48;;;;;;;10.73;2.60;;;;;;;16.65;68.86;101229.41;5005680;28;20292;-83
2022/07/14 03:28:15;;;;;;;13.23;2.93;;;;;;;16.67;68.90;101238.19;5010903;28;20205;-84
2022/07/14 03:30:42;;;;;;;8.63;2.27;;;;;;;16.69;68.68;101238.06;5009907;28;20216;-83
2022/07/14 03:33:09;;;;;;;7.87;2.60;;;;;;;16.66;68.59;101231.94;5006754;28;20256;-83
2022/07/14 03:35:38;;;;;;;12.20;2.67;;;;;;;16.64;68.54;101227.69;5007632;28;20208;-84
2022/07/14 03:38:04;;;;;;;9.80;2.43;;;;;;;16.61;68.63;101235.97;5009824;28;20201;-83
2022/07/14 03:40:33;;;;;;;11.37;2.63;;;;;;;16.59;69.06;101244.16;5005178;28;20617;-84
2022/07/14 03:43:00;;;;;;;12.07;2.70;;;;;;;16.57;69.14;101243.41;5001855;28;20220;-84
2022/07/14 03:45:27;;;;;;;11.13;2.40;;;;;;;16.57;69.02;101253.31;5001337;28;20228;-84
2022/07/14 03:47:53;;;;;;;8.07;2.27;;;;;;;16.56;69.34;101247.06;5004284;28;20206;-83
2022/07/14 03:50:20;;;;;;;9.60;2.63;;;;;;;16.56;69.26;101249.75;5001580;28;20216;-84
2022/07/14 03:52:47;;;;;;;12.90;2.77;;;;;;;16.57;69.67;101242.56;5004405;28;20228;-83
2022/07/14 03:55:13;;;;;;;8.17;2.50;;;;;;;16.57;69.55;101251.47;5004440;28;20215;-83
2022/07/14 03:57:41;;;;;;;10.83;2.80;;;;;;;16.60;69.81;101245.00;5001272;28;20201;-84
2022/07/14 04:00:10;;;;;;;8.50;3.00;;;;;;;16.60;69.49;101247.69;5002897;28;20205;-83
2022/07/14 04:02:36;;;;;;;10.27;2.60;;;;;;;16.61;70.07;101239.50;4998174;28;20226;-84
2022/07/14 04:05:03;;;;;;;13.00;2.43;;;;;;;16.61;69.58;101238.66;5008029;28;20292;-85
2022/07/14 04:07:29;;;;;;;11.20;2.80;;;;;;;16.60;69.54;101229.72;5007443;28;20901;-83
2022/07/14 04:09:56;;;;;;;9.70;2.50;;;;;;;16.57;69.40;101227.28;5011505;28;20231;-85
2022/07/14 04:12:22;;;;;;;9.37;2.80;;;;;;;16.56;69.61;101240.84;5018007;28;20226;-85
2022/07/14 04:14:50;;;;;;;11.53;2.70;;;;;;;16.56;69.85;101232.78;5014167;28;20204;-85
2022/07/14 04:17:17;;;;;;;13.27;2.87;;;;;;;16.55;70.27;101229.22;5010505;28;20210;-85
2022/07/14 04:19:43;;;;;;;11.50;2.87;;;;;;;16.56;70.57;101236.31;5010433;28;20200;-85
2022/07/14 04:22:10;;;;;;;15.30;3.37;;;;;;;16.54;70.56;101232.91;5006165;28;20226;-84
2022/07/14 04:24:37;;;;;;;16.97;3.10;;;;;;;16.55;70.73;101244.50;5010708;28;20205;-83
2022/07/14 04:27:04;;;;;;;11.00;2.73;;;;;;;16.53;70.92;101244.63;5016517;28;20237;-84
2022/07/14 04:29:31;;;;;;;7.77;2.43;;;;;;;16.51;71.36;101243.88;5011337;28;20202;-84
2022/07/14 04:31:59;;;;;;;10.17;2.70;;;;;;;16.51;71.70;101243.88;5011819;28;20327;-83
2022/07/14 04:34:25;;;;;;;14.43;3.10;;;;;;;16.50;71.58;101244.84;5018102;28;20216;-83
2022/07/14 04:36:52;;;;;;;13.83;2.80;;;;;;;16.49;71.86;101253.03;5015397;28;20212;-83
2022/07/14 04:39:18;;;;;;;11.53;2.80;;;;;;;16.49;72.05;101250.34;5014231;28;20212;-84
2022/07/14 04:41:45;;;;;;;10.47;2.93;;;;;;;16.50;72.06;101258.31;5005956;28;20220;-84
2022/07/14 04:44:12;;;;;;;8.80;2.57;;;;;;;16.49;71.99;101253.91;5004486;28;20582;-83
2022/07/14 04:46:38;;;;;;;12.60;3.23;;;;;;;16.49;72.29;101258.41;5005957;28;20200;-84
2022/07/14 04:52:05;;;;;;;8.63;2.47;;;;;;;16.46;72.24;101258.69;5005800;28;20239;-84
2022/07/14 04:54:34;;;;;;;11.97;3.17;;;;;;;16.43;72.15;101253.53;5001968;28;20208;-83
2022/07/14 04:57:03;;;;;;;12.40;3.37;;;;;;;16.42;72.06;101255.38;5006640;28;20615;-84
2022/07/14 04:59:30;;;;;;;8.23;2.47;;;;;;;16.42;72.39;101252.69;5005734;28;20217;-83
2022/07/14 05:01:58;;;;;;;9.53;2.40;;;;;;;16.42;72.42;101249.13;5004834;28;20815;-83
2022/07/14 05:04:26;;;;;;;10.70;2.90;;;;;;;16.41;72.31;101253.66;5010583;28;20215;-84
2022/07/14 05:06:52;;;;;;;10.87;2.70;;;;;;;16.44;72.26;101258.81;5000410;28;20212;-83
2022/07/14 05:09:19;;;;;;;9.23;2.90;;;;;;;16.42;72.55;101252.69;5000202;28;20209;-83
2022/07/14 05:11:46;;;;;;;11.80;2.87;;;;;;;16.44;72.52;101252.56;5004483;28;20241;-84
2022/07/14 05:14:13;;;;;;;7.87;2.47;;;;;;;16.43;72.73;101246.34;5000076;28;20681;-82
2022/07/14 05:16:40;;;;;;;11.57;2.93;;;;;;;16.43;72.74;101238.28;4999924;28;20236;-83
2022/07/14 05:19:06;;;;;;;9.10;2.70;;;;;;;16.44;72.63;101239.97;5007174;28;20677;-83
2022/07/14 05:21:34;;;;;;;8.20;2.47;;;;;;;16.45;72.58;101235.47;5009754;28;20236;-84
2022/07/14 05:24:01;;;;;;;13.87;3.00;;;;;;;16.46;72.68;101240.72;5006052;28;20210;-83
2022/07/14 05:26:27;;;;;;;11.47;2.83;;;;;;;16.47;72.52;101242.44;5012464;28;20287;-84
2022/07/14 05:28:54;;;;;;;9.40;2.43;;;;;;;16.50;72.44;101244.84;5007909;28;20292;-83
2022/07/14 05:31:21;;;;;;;13.13;2.53;;;;;;;16.53;72.40;101244.63;5010392;28;20258;-83
2022/07/14 05:33:48;;;;;;;12.50;2.97;;;;;;;16.55;72.20;101250.75;5008598;28;20312;-83
2022/07/14 05:36:14;;;;;;;9.87;2.57;;;;;;;16.56;71.94;101247.06;5008080;28;20225;-83
2022/07/14 05:38:42;;;;;;;12.63;2.70;;;;;;;16.57;71.69;101243.41;5012624;28;20268;-83
2022/07/14 05:41:09;;;;;;;11.03;2.67;;;;;;;16.56;71.64;101241.69;5007904;28;20218;-84
2022/07/14 05:43:35;;;;;;;13.33;3.23;;;;;;;16.56;71.32;101246.22;5008946;28;20214;-85
2022/07/14 05:46:06;;;;;;;14.10;2.63;;;;;;;16.59;71.25;101230.72;5007689;28;20218;-85
2022/07/14 05:48:33;;;;;;;11.07;2.57;;;;;;;16.69;71.36;101230.84;5010469;28;20202;-84
2022/07/14 05:51:07;;;;;;;8.30;2.37;;;;;;;16.79;71.32;101234.53;5011442;28;20213;-85
2022/07/14 05:53:35;;;;;;;15.57;2.90;;;;;;;16.87;71.07;101232.06;5004947;28;20233;-84
2022/07/14 05:56:04;;;;;;;13.60;2.80;;;;;;;16.96;70.68;101223.25;5004595;28;20233;-84
2022/07/14 05:58:31;;;;;;;10.57;2.43;;;;;;;17.07;70.40;101227.75;5009567;28;20313;-85
2022/07/14 06:00:57;;;;;;;10.97;2.97;;;;;;;17.19;70.46;101224.09;5010817;28;20752;-84
2022/07/14 06:03:24;;;;;;;14.33;2.93;;;;;;;17.31;69.82;101220.38;5011643;28;20217;-84
2022/07/14 06:05:50;;;;;;;10.67;2.90;;;;;;;17.41;69.02;101207.00;5014581;28;20212;-84
2022/07/14 06:08:17;;;;;;;10.97;2.20;;;;;;;17.53;68.39;101211.38;5013183;28;20223;-84
2022/07/14 06:10:44;;;;;;;12.23;2.40;;;;;;;17.67;68.24;101216.50;5012931;28;20200;-85
2022/07/14 06:13:12;;;;;;;10.20;2.10;;;;;;;17.82;68.05;101216.19;5007250;28;20239;-85
2022/07/14 06:15:39;;;;;;;11.37;2.90;;;;;;;17.96;66.96;101214.00;5007344;28;20204;-84
2022/07/14 06:18:05;;;;;;;11.67;2.20;;;;;;;18.08;66.47;101212.13;5007483;28;20573;-85
2022/07/14 06:20:32;;;;;;;10.10;2.50;;;;;;;18.21;65.34;101211.91;5008215;28;20215;-83
2022/07/14 06:22:58;;;;;;;11.07;2.60;;;;;;;18.32;64.53;101210.00;5011071;28;20626;-84
2022/07/14 06:25:25;;;;;;;9.87;2.33;;;;;;;18.45;63.82;101204.38;5004406;28;20219;-83
2022/07/14 06:27:51;;;;;;;8.17;1.83;;;;;;;18.56;62.77;101193.50;5004902;28;20201;-83
2022/07/14 06:30:19;;;;;;;9.60;1.83;;;;;;;18.70;62.64;101190.47;5005317;28;20210;-83
2022/07/14 06:32:45;;;;;;;7.43;2.03;;;;;;;18.83;60.97;101197.47;5005788;28;20228;-82
2022/07/14 06:35:12;;;;;;;11.87;2.23;;;;;;;18.90;60.18;101196.78;5007808;28;20205;-83
2022/07/14 06:37:39;;;;;;;7.70;1.83;;;;;;;19.00;60.17;101199.50;5009036;28;20209;-83
2022/07/14 06:40:08;;;;;;;9.00;2.13;;;;;;;19.13;59.21;101192.03;5009332;28;20208;-82
2022/07/14 06:42:34;;;;;;;7.53;2.23;;;;;;;19.25;58.95;101193.59;5010132;28;20227;-83
2022/07/14 06:45:02;;;;;;;7.33;1.53;;;;;;;19.38;58.04;101194.19;5013271;28;20244;-83
2022/07/14 06:47:30;;;;;;;7.77;1.93;;;;;;;19.51;57.60;101187.69;5014185;28;20202;-84
2022/07/14 06:49:57;;;;;;;5.27;1.60;;;;;;;19.62;56.85;101191.09;5016138;28;20246;-85
2022/07/14 06:52:24;;;;;;;6.70;1.90;;;;;;;19.71;56.79;101186.69;5012896;28;20238;-84
2022/07/14 06:54:51;;;;;;;7.00;1.83;;;;;;;19.76;56.11;101181.69;5012711;28;20216;-87
2022/07/14 06:57:18;;;;;;;7.73;1.90;;;;;;;19.81;55.96;101176.72;5010989;28;20313;-87
2022/07/14 06:59:45;;;;;;;10.03;2.13;;;;;;;19.91;55.65;101182.97;5013194;28;20209;-85
2022/07/14 07:02:12;;;;;;;7.77;2.07;;;;;;;20.04;55.56;101177.28;5007957;28;20244;-86
2022/07/14 07:04:40;;;;;;;7.77;1.77;;;;;;;20.23;55.00;101185.34;4998617;28;20605;-84
2022/07/14 07:07:05;;;;;;;6.03;2.00;;;;;;;20.40;53.74;101186.47;5008189;28;20222;-85
2022/07/14 07:09:32;;;;;;;7.27;1.80;;;;;;;20.47;53.15;101184.84;5013297;28;20203;-85
2022/07/14 07:11:59;;;;;;;10.97;2.17;;;;;;;20.59;53.46;101180.97;5016467;28;20306;-85
2022/07/14 07:14:25;;;;;;;6.53;2.43;;;;;;;20.72;53.03;101186.03;5016246;28;20290;-84
2022/07/14 07:16:52;;;;;;;9.87;2.50;;;;;;;20.77;52.44;101181.91;5017261;28;20961;-86
2022/07/14 07:19:19;;;;;;;9.63;2.30;;;;;;;20.87;52.46;101189.09;5013713;28;20727;-85
2022/07/14 07:21:47;;;;;;;6.85;2.00;;;;;;;20.91;51.63;101190.50;5013821;28;20317;-84
2022/07/14 07:24:14;;;;;;;8.30;2.20;;;;;;;20.85;51.20;101181.13;5013584;28;20293;-83
2022/07/14 07:26:42;;;;;;;5.97;2.70;;;;;;;20.76;51.38;101172.06;5011339;28;20293;-83
2022/07/14 07:29:09;;;;;;;9.73;3.40;;;;;;;20.66;51.96;101164.97;5015176;28;20263;-83
2022/07/14 07:31:37;;;;;;;8.40;2.38;;;;;;;20.62;52.13;101166.28;5017448;28;20862;-84
2022/07/14 07:34:04;;;;;;;9.57;2.50;;;;;;;20.63;52.22;101166.13;5021936;28;20303;-84
2022/07/14 07:36:31;;;;;;;11.17;2.37;;;;;;;20.67;51.91;101166.69;5011145;28;20511;-84
2022/07/14 07:38:59;;;;;;;6.80;2.00;;;;;;;20.67;51.40;101153.16;5011038;28;20206;-84
2022/07/14 07:41:26;;;;;;;7.77;2.57;;;;;;;20.68;51.34;101154.84;5016261;28;20313;-86
2022/07/14 07:43:53;;;;;;;8.93;2.55;;;;;;;20.73;51.50;101150.72;5032646;28;20210;-86
2022/07/14 07:46:20;;;;;;;7.55;2.70;;;;;;;20.80;51.09;101150.94;5018398;28;20214;-86
2022/07/14 07:48:46;;;;;;;11.27;2.72;;;;;;;20.76;50.81;101144.16;5018612;28;20642;-85
2022/07/14 07:51:13;;;;;;;7.93;1.90;;;;;;;20.77;51.48;101149.41;5018501;28;20217;-85
2022/07/14 07:53:40;;;;;;;8.47;1.87;;;;;;;20.79;51.52;101149.22;5018392;28;20591;-85
2022/07/14 07:56:08;;;;;;;5.78;1.90;;;;;;;20.78;50.94;101152.97;5018867;28;20657;-85
2022/07/14 07:58:35;;;;;;;5.28;1.67;;;;;;;20.75;50.52;101164.09;5018673;28;20206;-86
2022/07/14 08:01:01;;;;;;;5.50;1.60;;;;;;;20.72;50.67;101154.41;5019450;28;20269;-85
2022/07/14 08:03:28;;;;;;;5.20;1.58;;;;;;;20.65;50.56;101158.72;5021526;28;20591;-88
2022/07/14 08:05:55;;;;;;;7.40;2.07;;;;;;;20.62;50.56;101163.56;5020098;28;20583;-86
2022/07/14 08:08:22;;;;;;;5.60;1.67;;;;;;;20.68;50.23;101152.16;5019485;28;20258;-84
2022/07/14 08:10:49;;;;;;;4.00;1.48;;;;;;;20.75;49.98;101146.00;5019393;28;20221;-84
2022/07/14 08:13:17;;;;;;;8.57;1.92;;;;;;;20.90;49.33;101145.47;5018255;28;20231;-86
2022/07/14 08:15:44;;;;;;;7.60;1.70;;;;;;;20.99;48.56;101149.97;5017984;28;20242;-87
2022/07/14 08:18:11;;;;;;;5.93;1.58;;;;;;;21.14;49.24;101148.44;5018064;28;20203;-86
2022/07/14 08:20:38;;;;;;;9.25;1.92;;;;;;;21.31;48.53;101144.09;5018840;28;20676;-84
2022/07/14 08:23:04;;;;;;;7.78;1.83;;;;;;;21.41;48.85;101144.84;5018123;28;20258;-85
2022/07/14 08:25:32;;;;;;;6.28;1.88;;;;;;;21.59;48.66;101140.28;5017794;28;20254;-84
2022/07/14 08:27:59;;;;;;;7.38;1.63;;;;;;;21.68;47.53;101136.63;5018349;28;20234;-84
2022/07/14 08:30:27;;;;;;;5.53;1.80;;;;;;;21.79;47.41;101133.66;5018231;28;20745;-84
2022/07/14 08:32:53;;;;;;;4.97;1.70;;;;;;;21.91;46.34;101142.38;5017525;28;20239;-84
2022/07/14 08:35:23;;;;;;;4.97;1.80;;;;;;;21.95;46.24;101132.94;5018249;28;20211;-84
2022/07/14 08:37:50;;;;;;;3.70;1.55;;;;;;;22.07;46.74;101118.13;5017792;28;20202;-84
2022/07/14 08:40:18;;;;;;;5.63;1.50;;;;;;;22.17;46.09;101120.72;5017820;28;20217;-84
2022/07/14 08:42:46;;;;;;;6.35;2.03;;;;;;;22.26;45.65;101118.91;5017451;28;20234;-85
2022/07/14 08:45:15;;;;;;;5.55;1.55;;;;;;;22.30;44.65;101115.72;5017762;28;20217;-86
2022/07/14 08:47:43;;;;;;;7.53;1.60;;;;;;;22.40;44.89;101110.16;5017343;28;20214;-86
2022/07/14 08:50:12;;;;;;;5.00;1.77;;;;;;;22.51;44.37;101104.44;5017570;28;20297;-85
2022/07/14 08:52:39;;;;;;;4.95;1.40;;;;;;;22.63;44.20;101105.84;5017321;28;20231;-83
2022/07/14 08:55:08;;;;;;;4.53;1.75;;;;;;;22.73;43.91;101101.16;5019350;28;20626;-83
2022/07/14 08:57:35;;;;;;;8.18;2.30;;;;;;;22.84;43.77;101102.72;5022654;28;20208;-87
2022/07/14 09:00:02;;;;;;;7.75;2.15;;;;;;;22.93;43.79;101099.00;5023062;28;20692;-85
2022/07/14 09:02:33;;;;;;;6.05;1.48;;;;;;;23.03;43.48;101093.44;5023566;28;20274;-83
2022/07/14 09:05:01;;;;;;;7.10;1.90;;;;;;;23.14;43.03;101093.09;5024479;28;20655;-84
2022/07/14 09:07:33;;;;;;;5.47;1.60;;;;;;;23.23;42.44;101102.13;5024243;28;20210;-85
2022/07/14 09:10:06;;;;;;;9.45;1.88;;;;;;;23.34;41.76;101102.63;5025964;28;20235;-86
2022/07/14 09:12:33;;;;;;;5.68;1.58;;;;;;;23.44;41.80;101100.63;5025218;28;20305;-85
2022/07/14 09:17:51;;;;;;;5.30;1.73;;;;;;;23.66;41.24;101093.66;5025707;28;20210;-85
2022/07/14 09:20:20;;;;;;;5.28;1.65;;;;;;;23.74;40.46;101093.66;5025547;28;20241;-87
2022/07/14 09:22:47;;;;;;;5.38;1.83;;;;;;;23.81;40.37;101088.38;5023254;28;20309;-85
2022/07/14 09:25:15;;;;;;;5.15;1.70;;;;;;;23.86;40.08;101081.38;5023559;28;20206;-85
2022/07/14 09:27:45;;;;;;;6.97;1.83;;;;;;;23.95;40.12;101075.94;5023239;28;20204;-84
2022/07/14 09:30:11;;;;;;;3.92;1.90;;;;;;;24.05;39.90;101076.59;5023867;28;20213;-85
2022/07/14 09:32:51;;;;;;;10.80;1.90;;;;;;;24.12;39.05;101080.31;5023760;28;20322;-84
2022/07/14 09:35:21;;;;;;;7.15;1.92;;;;;;;24.15;39.43;101077.25;5023302;28;20207;-85
2022/07/14 09:37:49;;;;;;;4.55;1.48;;;;;;;24.22;39.02;101079.09;5018430;28;20203;-83
2022/07/14 09:40:25;;;;;;;4.45;1.42;;;;;;;24.27;38.46;101075.03;5017084;28;20297;-83
2022/07/14 09:42:57;;;;;;;4.22;1.38;;;;;;;24.33;38.08;101085.22;5017698;28;20735;-83
2022/07/14 09:45:26;;;;;;;6.28;1.30;;;;;;;24.37;36.74;101073.78;5016744;28;20285;-85
2022/07/14 09:47:58;;;;;;;6.25;1.48;;;;;;;24.47;36.78;101073.59;5016372;28;20293;-85
2022/07/14 09:50:44;;;;;;;3.67;1.25;;;;;;;24.57;36.56;101066.03;5017251;28;20605;-85
2022/07/14 09:53:16;;;;;;;5.50;1.40;;;;;;;24.66;37.15;101070.44;5017074;28;20237;-84
2022/07/14 09:55:46;;;;;;;3.90;1.35;;;;;;;24.77;36.94;101070.00;5017219;28;20657;-87
2022/07/14 09:58:13;;;;;;;6.50;1.58;;;;;;;24.84;37.03;101061.97;5018329;28;20575;-86
2022/07/14 10:00:41;;;;;;;3.30;1.13;;;;;;;24.88;36.82;101064.19;5016446;28;20207;-86
2022/07/14 10:03:08;;;;;;;3.40;1.10;;;;;;;24.93;36.06;101061.72;5017182;28;20226;-85
2022/07/14 10:05:38;;;;;;;4.07;1.20;;;;;;;24.99;36.53;101048.47;5017023;28;20202;-84
2022/07/14 10:08:08;;;;;;;7.35;1.38;;;;;;;25.03;36.42;101055.25;5016669;28;20214;-85
2022/07/14 10:10:37;;;;;;;4.18;1.23;;;;;;;25.10;36.32;101051.59;5016750;28;20209;-85
2022/07/14 10:13:05;;;;;;;4.93;1.20;;;;;;;25.02;36.15;101056.28;5016654;28;20314;-86
2022/07/14 10:15:32;;;;;;;3.67;1.30;;;;;;;24.93;36.12;101066.34;5016235;28;20206;-86
2022/07/14 10:18:01;;;;;;;4.82;1.25;;;;;;;24.91;36.14;101060.22;5017183;28;20199;-85
2022/07/14 10:20:29;;;;;;;4.63;1.10;;;;;;;24.90;35.88;101051.19;5016868;28;20309;-86
2022/07/14 10:22:58;;;;;;;5.32;1.17;;;;;;;24.96;36.07;101057.84;5016394;28;20222;-86
2022/07/14 10:25:25;;;;;;;6.28;1.30;;;;;;;25.02;36.29;101051.69;5017279;28;20210;-85
2022/07/14 10:27:53;;;;;;;5.35;1.52;;;;;;;25.09;35.74;101051.78;5017361;28;20277;-86
2022/07/14 10:30:21;;;;;;;5.22;1.10;;;;;;;25.12;36.00;101048.69;5015596;28;20258;-87
2022/07/14 10:32:56;;;;;;;4.90;1.17;;;;;;;25.12;35.96;101045.97;5015669;28;20226;-86
2022/07/14 10:35:40;;;;;;;4.55;1.10;;;;;;;25.17;35.76;101041.69;5010008;28;20684;-86
2022/07/14 10:38:26;;;;;;;4.38;1.13;;;;;;;25.14;34.41;101035.72;5007496;28;21245;-87
2022/07/14 10:41:04;;;;;;;6.35;1.30;;;;;;;25.05;34.56;101037.69;5008712;28;20584;-86
2022/07/14 10:43:42;;;;;;;3.53;1.10;;;;;;;25.02;35.12;101031.75;5008901;28;20206;-86
2022/07/14 10:46:09;;;;;;;5.28;1.10;;;;;;;24.99;34.42;101032.97;5012702;28;20195;-86
2022/07/14 10:48:37;;;;;;;2.55;0.80;;;;;;;25.00;34.51;101025.63;5003801;28;20230;-87
2022/07/14 10:51:17;;;;;;;3.28;1.10;;;;;;;25.07;34.83;101038.38;5006310;28;20577;-86
2022/07/14 10:54:02;;;;;;;2.28;0.90;;;;;;;25.13;34.59;101034.03;5001903;28;20696;-86
2022/07/14 10:56:29;;;;;;;2.85;1.00;;;;;;;25.18;33.68;101031.63;5007871;28;20232;-86
2022/07/14 10:59:32;;;;;;;3.63;1.10;;;;;;;25.25;33.69;101030.72;5001543;28;20209;-86
2022/07/14 11:02:28;;;;;;;4.60;1.15;;;;;;;25.35;33.18;101025.00;4998910;28;20218;-85
2022/07/14 11:05:07;;;;;;;4.75;1.17;;;;;;;25.46;33.44;101027.25;5008974;28;20206;-85
2022/07/14 11:07:39;;;;;;;2.53;0.88;;;;;;;25.56;33.36;101007.94;5008686;28;20214;-86
2022/07/14 11:10:46;;;;;;;2.80;0.95;;;;;;;25.63;32.85;101010.78;5007170;28;20222;-86
2022/07/14 11:13:17;;;;;;;3.22;0.80;;;;;;;25.58;31.97;101006.72;5003057;28;20234;-86
2022/07/14 11:15:45;;;;;;;3.40;0.65;;;;;;;25.56;32.50;101002.47;5004936;28;20217;-87
2022/07/14 11:18:30;;;;;;;2.10;0.88;;;;;;;25.57;32.45;100996.00;5005317;28;20219;-86
2022/07/14 11:21:00;;;;;;;2.25;0.95;;;;;;;25.58;31.62;101001.25;5009425;28;20221;-86
2022/07/14 11:23:28;;;;;;;3.42;0.60;;;;;;;25.59;31.61;101000.22;5002313;28;20234;-86
2022/07/14 11:25:58;;;;;;;2.25;0.75;;;;;;;25.58;31.85;101005.88;5004565;28;20380;-85
2022/07/14 11:28:45;;;;;;;2.03;0.60;;;;;;;25.56;31.49;100997.88;5004686;28;20213;-85
2022/07/14 11:31:15;;;;;;;2.25;0.75;;;;;;;25.56;31.76;101003.31;5002690;28;20285;-85
2022/07/14 11:36:29;;;;;;;1.45;0.70;;;;;;;25.70;31.29;100988.03;5001979;28;20213;-85
2022/07/14 11:39:21;;;;;;;2.95;0.80;;;;;;;25.80;30.89;100985.00;5007828;28;20210;-85